Guilin, China
Current Conditions -  °F | °C
As of 1:00 PM on Tuesday 21 Oct 2014 (Local Time) from ZGKL Reporting Station
Light Rain Light Rain  
Wind Chill: 72°   Ceiling: 6000
Heat Index: 72°   Visibility: 6mi
Dew Point: 70°   Wind: 4mph
Humidity: 94%   Direction: 320°NW
Pressure: 30.09"   Gusts: NA
Location:  25.28°N, 110.28°E
Report Text: ZGKL 210500Z 32002MPS 200V350 9999 -RA FEW010 SCT040BKN06022/21 Q1019 RERA NOSIG
Loading
Personal Weather Stations






























Interactive Weather Map
Tropical Storm Tracking
New forecast layout! Learn more

10-Day Weather Forecast

Advertisements
Track Severe Weather on mobile